Time;durP1;ratioP1;P1;durP2;ratioP2;P2;SDS_P1;SDS_P2;PMS_P1;PMS_P2;Temp;Humidity;BMP_temperature;BMP_pressure;BME280_temperature;BME280_humidity;BME280_pressure;Samples;Min_cycle;Max_cycle;Signal;HPM_P1;HPM_P2
2023/03/22 00:01:46;;;;;;;16.85;10.00;;;10.00;99.90;;;;;;5120095;27;20099;-80
2023/03/22 00:04:12;;;;;;;20.55;10.93;;;10.00;99.90;;;;;;5120429;28;20078;-81
2023/03/22 00:06:37;;;;;;;15.68;10.18;;;10.00;99.90;;;;;;5142721;27;20048;-81
2023/03/22 00:09:03;;;;;;;15.52;10.25;;;10.00;99.90;;;;;;5136623;27;20048;-80
2023/03/22 00:11:28;;;;;;;17.17;10.23;;;10.00;99.90;;;;;;5118801;27;20035;-80
2023/03/22 00:13:54;;;;;;;16.10;10.10;;;10.10;99.90;;;;;;5119892;27;20127;-80
2023/03/22 00:16:20;;;;;;;17.92;9.93;;;9.90;99.90;;;;;;5104183;28;20119;-81
2023/03/22 00:18:46;;;;;;;17.08;9.70;;;9.90;99.90;;;;;;5097742;28;20055;-81
2023/03/22 00:21:16;;;;;;;14.45;8.93;;;9.90;99.90;;;;;;5119302;27;20032;-80
2023/03/22 00:23:42;;;;;;;15.90;9.45;;;9.80;99.90;;;;;;5120967;27;20562;-80
2023/03/22 00:26:09;;;;;;;14.75;8.98;;;9.80;99.90;;;;;;5114714;28;20039;-80
2023/03/22 00:28:35;;;;;;;17.13;8.65;;;9.80;99.90;;;;;;5105770;27;20035;-80
2023/03/22 00:31:01;;;;;;;13.63;8.25;;;9.80;99.90;;;;;;5114388;28;20495;-81
2023/03/22 00:33:30;;;;;;;16.58;8.65;;;9.70;99.90;;;;;;5114107;28;20031;-81
2023/03/22 00:35:58;;;;;;;14.13;7.07;;;9.70;99.90;;;;;;5120566;27;20054;-81
2023/03/22 00:38:25;;;;;;;17.42;7.18;;;9.70;99.90;;;;;;5119047;27;20040;-80
2023/03/22 00:40:50;;;;;;;13.07;6.90;;;9.70;99.90;;;;;;5110566;28;20036;-81
2023/03/22 00:43:16;;;;;;;15.43;6.75;;;9.70;99.90;;;;;;5112534;27;20507;-81
2023/03/22 00:45:42;;;;;;;12.18;6.47;;;9.70;99.90;;;;;;5113428;28;20050;-80
2023/03/22 00:48:09;;;;;;;11.63;5.88;;;9.60;99.90;;;;;;5104142;27;20444;-80
2023/03/22 00:50:36;;;;;;;10.38;5.55;;;9.70;99.90;;;;;;5117425;27;20517;-81
2023/03/22 00:53:01;;;;;;;10.45;5.90;;;9.60;99.90;;;;;;5096321;28;20024;-80
2023/03/22 00:55:27;;;;;;;12.30;5.63;;;9.60;99.90;;;;;;5115064;27;20511;-81
2023/03/22 00:57:53;;;;;;;14.90;5.88;;;9.60;99.90;;;;;;5094338;28;20074;-81
2023/03/22 01:00:18;;;;;;;9.38;4.95;;;9.60;99.90;;;;;;5111668;27;20039;-80
2023/03/22 01:02:44;;;;;;;14.75;5.15;;;9.60;99.90;;;;;;5119943;27;20039;-81
2023/03/22 01:05:14;;;;;;;8.27;4.90;;;9.60;99.90;;;;;;5099647;27;20063;-80
2023/03/22 01:07:41;;;;;;;14.20;5.15;;;9.50;99.90;;;;;;5124771;27;20048;-80
2023/03/22 01:10:08;;;;;;;13.82;5.70;;;9.50;99.90;;;;;;5115943;27;20039;-81
2023/03/22 01:12:34;;;;;;;15.77;4.72;;;9.50;99.90;;;;;;5117793;27;20063;-81
2023/03/22 01:14:59;;;;;;;8.80;4.15;;;9.50;99.90;;;;;;5123135;27;20059;-81
2023/03/22 01:17:25;;;;;;;11.02;4.18;;;9.50;99.90;;;;;;5153884;27;20028;-80
2023/03/22 01:19:50;;;;;;;10.57;4.22;;;9.50;99.90;;;;;;5109452;27;20060;-80
2023/03/22 01:22:16;;;;;;;11.00;3.70;;;9.40;99.90;;;;;;5100493;28;20498;-80
2023/03/22 01:24:41;;;;;;;10.02;3.72;;;9.50;99.90;;;;;;5116802;28;20039;-80
2023/03/22 01:27:07;;;;;;;7.43;3.38;;;9.50;99.90;;;;;;5155061;27;20386;-80
2023/03/22 01:29:34;;;;;;;6.65;3.38;;;9.50;99.90;;;;;;5154977;27;20043;-80
2023/03/22 01:31:59;;;;;;;8.30;3.40;;;9.40;99.90;;;;;;5116360;27;20038;-80
2023/03/22 01:34:25;;;;;;;9.43;3.10;;;9.40;99.90;;;;;;5115113;27;20040;-80
2023/03/22 01:36:51;;;;;;;6.80;2.92;;;9.40;99.90;;;;;;5116063;27;20031;-81
2023/03/22 01:39:16;;;;;;;7.57;2.90;;;9.40;99.90;;;;;;5147868;27;20032;-81
2023/03/22 01:41:42;;;;;;;11.15;3.13;;;9.40;99.90;;;;;;5119818;27;20036;-80
2023/03/22 01:44:17;;;;;;;7.28;2.70;;;9.40;99.90;;;;;;5116109;27;20044;-81
2023/03/22 01:46:45;;;;;;;7.57;2.88;;;9.40;99.90;;;;;;5112371;27;20096;-80
2023/03/22 01:49:17;;;;;;;9.13;2.72;;;9.30;99.90;;;;;;5115266;28;20047;-81
2023/03/22 01:51:46;;;;;;;6.90;2.30;;;9.30;99.90;;;;;;5113927;28;20035;-81
2023/03/22 01:54:17;;;;;;;10.07;2.60;;;9.40;99.90;;;;;;5117345;28;20084;-80
2023/03/22 01:56:43;;;;;;;9.35;2.65;;;9.40;99.90;;;;;;5124668;27;20071;-81
2023/03/22 01:59:11;;;;;;;8.45;2.00;;;9.40;99.90;;;;;;5112244;27;20165;-81
2023/03/22 02:01:37;;;;;;;8.60;2.55;;;9.30;99.90;;;;;;5124480;27;20043;-81
2023/03/22 02:04:12;;;;;;;8.98;2.45;;;9.30;99.90;;;;;;5100072;28;20181;-80
2023/03/22 02:06:38;;;;;;;8.23;2.08;;;9.30;99.90;;;;;;5110766;28;20428;-80
2023/03/22 02:09:07;;;;;;;8.90;2.13;;;9.30;99.90;;;;;;5105395;28;20148;-81
2023/03/22 02:11:37;;;;;;;6.38;1.90;;;9.30;99.90;;;;;;5112918;28;20503;-80
2023/03/22 02:14:16;;;;;;;5.63;2.00;;;9.30;99.90;;;;;;5111546;28;20036;-81
2023/03/22 02:16:48;;;;;;;10.18;2.63;;;9.30;99.90;;;;;;5152249;27;20118;-81
2023/03/22 02:19:29;;;;;;;9.93;2.25;;;9.30;99.90;;;;;;5108053;28;20044;-81
2023/03/22 02:22:27;;;;;;;8.27;1.77;;;9.30;99.90;;;;;;5106836;27;20042;-81
2023/03/22 02:25:32;;;;;;;8.68;2.00;;;9.30;99.90;;;;;;5113540;27;20065;-80
2023/03/22 02:28:24;;;;;;;;;;;9.30;99.90;;;;;;5121439;27;20044;-81
2023/03/22 02:31:08;;;;;;;5.65;1.48;;;9.30;99.90;;;;;;5112032;28;19995;-81
2023/03/22 02:33:45;;;;;;;;;;;9.30;99.90;;;;;;5125214;27;20120;-81
2023/03/22 02:36:39;;;;;;;6.30;1.85;;;9.30;99.90;;;;;;5111340;28;19962;-81
2023/03/22 02:39:34;;;;;;;8.77;1.40;;;9.30;99.90;;;;;;5114481;27;20032;-80
2023/03/22 02:42:11;;;;;;;6.68;1.80;;;9.30;99.90;;;;;;5105085;28;20044;-81
2023/03/22 02:44:40;;;;;;;7.45;1.63;;;9.30;99.90;;;;;;5099165;28;20072;-81
2023/03/22 02:47:13;;;;;;;8.90;1.85;;;9.30;99.90;;;;;;5113618;27;20046;-80
2023/03/22 02:49:57;;;;;;;9.10;1.90;;;9.30;99.90;;;;;;5111300;28;20131;-80
2023/03/22 02:52:41;;;;;;;;;;;9.30;99.90;;;;;;5117931;28;20035;-81
2023/03/22 02:55:17;;;;;;;7.30;1.77;;;9.30;99.90;;;;;;5112524;28;20403;-81
2023/03/22 02:57:46;;;;;;;9.23;1.67;;;9.30;99.90;;;;;;5148611;27;20092;-81
2023/03/22 03:00:13;;;;;;;7.05;1.80;;;9.30;99.90;;;;;;5114701;28;20409;-81
2023/03/22 03:02:44;;;;;;;8.48;2.47;;;9.40;99.90;;;;;;5111456;28;20070;-81
2023/03/22 03:05:11;;;;;;;8.35;1.90;;;9.40;99.90;;;;;;5121341;27;20084;-80
2023/03/22 03:07:37;;;;;;;8.65;1.60;;;9.40;99.90;;;;;;5115176;28;20108;-81
2023/03/22 03:10:03;;;;;;;8.35;1.75;;;9.40;99.90;;;;;;5106651;28;20040;-81
2023/03/22 03:12:29;;;;;;;8.65;1.60;;;9.50;99.90;;;;;;5116047;28;20034;-81
2023/03/22 03:14:55;;;;;;;7.70;1.70;;;9.50;99.90;;;;;;5110085;28;20095;-80
2023/03/22 03:17:35;;;;;;;7.53;1.50;;;9.50;99.90;;;;;;5104610;28;20141;-81
2023/03/22 03:20:28;;;;;;;7.20;1.42;;;9.50;99.90;;;;;;5114712;28;20032;-81
2023/03/22 03:23:19;;;;;;;11.32;1.80;;;9.50;99.90;;;;;;5093719;28;20124;-82
2023/03/22 03:25:48;;;;;;;7.57;1.90;;;9.50;99.90;;;;;;5113427;28;20382;-81
2023/03/22 03:28:39;;;;;;;5.72;1.70;;;9.50;99.90;;;;;;5114588;28;20058;-81
2023/03/22 03:31:16;;;;;;;7.70;2.25;;;9.50;99.90;;;;;;5116842;27;20101;-81
2023/03/22 03:34:10;;;;;;;9.07;1.98;;;9.50;99.90;;;;;;5102204;28;20369;-81
2023/03/22 03:36:38;;;;;;;10.10;1.80;;;9.50;99.90;;;;;;5115808;27;20031;-81
2023/03/22 03:39:07;;;;;;;6.45;1.60;;;9.50;99.90;;;;;;5103959;28;20043;-81
2023/03/22 03:41:34;;;;;;;7.78;2.10;;;9.40;99.90;;;;;;5096293;28;20376;-81
2023/03/22 03:44:00;;;;;;;6.15;1.65;;;9.40;99.90;;;;;;5119946;27;20089;-81
2023/03/22 03:46:27;;;;;;;6.88;2.13;;;9.50;99.90;;;;;;5111941;27;20044;-81
2023/03/22 03:48:55;;;;;;;7.97;2.03;;;9.50;99.90;;;;;;5121196;27;20406;-82
2023/03/22 03:51:21;;;;;;;6.90;1.80;;;9.40;99.90;;;;;;5095900;28;20499;-81
2023/03/22 03:53:47;;;;;;;6.47;2.13;;;9.40;99.90;;;;;;5102860;28;20032;-82
2023/03/22 03:56:13;;;;;;;8.65;2.00;;;9.40;99.90;;;;;;5108745;27;20039;-80
2023/03/22 03:58:38;;;;;;;12.32;2.22;;;9.50;99.90;;;;;;5101227;27;20031;-81
2023/03/22 04:01:04;;;;;;;6.35;1.85;;;9.50;99.90;;;;;;5096723;27;20039;-81
2023/03/22 04:03:31;;;;;;;8.98;2.25;;;9.50;99.90;;;;;;5099944;27;20051;-81
2023/03/22 04:05:58;;;;;;;9.23;1.98;;;9.40;99.90;;;;;;5124413;27;20244;-81
2023/03/22 04:08:24;;;;;;;7.03;1.90;;;9.50;99.90;;;;;;5110262;28;20044;-81
2023/03/22 04:10:51;;;;;;;5.22;1.90;;;9.50;99.90;;;;;;5117311;28;20038;-81
2023/03/22 04:13:20;;;;;;;6.20;1.80;;;9.40;99.90;;;;;;5109379;28;20075;-82
2023/03/22 04:15:46;;;;;;;12.73;2.10;;;9.40;99.90;;;;;;5128806;27;20028;-82
2023/03/22 04:18:12;;;;;;;6.57;2.03;;;9.40;99.90;;;;;;5120066;27;20107;-82
2023/03/22 04:20:40;;;;;;;7.30;2.15;;;9.40;99.90;;;;;;5112569;28;20042;-81
2023/03/22 04:23:09;;;;;;;8.43;2.63;;;9.40;99.90;;;;;;5119499;27;20035;-82
2023/03/22 04:25:36;;;;;;;10.00;2.60;;;9.40;99.90;;;;;;5095063;27;20046;-82
2023/03/22 04:28:03;;;;;;;7.03;2.45;;;9.40;99.90;;;;;;5115881;27;20042;-80
2023/03/22 04:30:29;;;;;;;9.90;2.22;;;9.30;99.90;;;;;;5112849;27;20040;-81
2023/03/22 04:32:55;;;;;;;9.82;2.47;;;9.30;99.90;;;;;;5116192;27;20115;-81
2023/03/22 04:35:21;;;;;;;8.05;2.20;;;9.30;99.90;;;;;;5134611;27;20086;-81
2023/03/22 04:37:47;;;;;;;10.40;2.67;;;9.30;99.90;;;;;;5138544;27;20032;-82
2023/03/22 04:40:15;;;;;;;9.73;2.92;;;9.30;99.90;;;;;;5117837;27;20043;-81
2023/03/22 04:42:41;;;;;;;6.65;2.70;;;9.30;99.90;;;;;;5107605;27;20057;-81
2023/03/22 04:45:08;;;;;;;12.95;3.30;;;9.30;99.90;;;;;;5096319;27;20039;-81
2023/03/22 04:47:34;;;;;;;6.13;2.95;;;9.30;99.90;;;;;;5115534;27;20043;-82
2023/03/22 04:49:59;;;;;;;7.95;3.83;;;9.40;99.90;;;;;;5115738;27;20150;-81
2023/03/22 04:52:25;;;;;;;9.93;3.42;;;9.40;99.90;;;;;;5138557;27;20028;-82
2023/03/22 04:54:50;;;;;;;11.82;3.67;;;9.40;99.90;;;;;;5102622;28;20035;-82
2023/03/22 04:57:16;;;;;;;13.73;4.03;;;9.30;99.90;;;;;;5100015;27;20139;-82
2023/03/22 04:59:42;;;;;;;12.52;5.18;;;9.40;99.90;;;;;;5108862;27;20402;-81
2023/03/22 05:02:07;;;;;;;9.63;4.38;;;9.40;99.90;;;;;;5111962;27;20031;-82
2023/03/22 05:04:33;;;;;;;10.20;4.85;;;9.50;99.90;;;;;;5119401;27;20044;-82
2023/03/22 05:06:58;;;;;;;9.02;4.57;;;9.50;99.90;;;;;;5110346;27;20036;-81
2023/03/22 05:09:24;;;;;;;11.90;5.30;;;9.40;99.90;;;;;;5132181;27;20036;-81
2023/03/22 05:11:49;;;;;;;10.75;5.30;;;9.50;99.90;;;;;;5114530;27;20055;-81
2023/03/22 05:14:15;;;;;;;11.50;5.43;;;9.50;99.90;;;;;;5110206;28;20032;-81
2023/03/22 05:16:41;;;;;;;11.27;5.88;;;9.50;99.90;;;;;;5101269;28;20063;-81
2023/03/22 05:19:12;;;;;;;11.20;5.70;;;9.50;99.90;;;;;;5113064;27;20035;-81
2023/03/22 05:21:39;;;;;;;14.57;6.18;;;9.60;99.90;;;;;;5109993;27;20040;-81
2023/03/22 05:24:06;;;;;;;13.90;6.40;;;9.60;99.90;;;;;;5116295;27;20410;-81
2023/03/22 05:26:32;;;;;;;9.43;5.50;;;9.60;99.90;;;;;;5112346;27;20058;-81
2023/03/22 05:28:58;;;;;;;16.00;6.60;;;9.60;99.90;;;;;;5095308;28;20118;-81
2023/03/22 05:31:24;;;;;;;13.65;6.47;;;9.60;99.90;;;;;;5110070;27;20057;-80
2023/03/22 05:33:53;;;;;;;12.82;6.88;;;9.60;99.90;;;;;;5132367;27;20036;-82
2023/03/22 05:36:20;;;;;;;10.00;6.22;;;9.60;99.90;;;;;;5113682;27;20130;-80
2023/03/22 05:38:46;;;;;;;14.43;6.97;;;9.60;99.90;;;;;;5111881;27;20031;-81
2023/03/22 05:41:12;;;;;;;17.90;7.65;;;9.60;99.90;;;;;;5136764;27;20032;-81
2023/03/22 05:43:38;;;;;;;14.77;7.15;;;9.60;99.90;;;;;;5111743;27;20464;-80
2023/03/22 05:46:08;;;;;;;11.27;6.88;;;9.60;99.90;;;;;;5108932;28;20114;-80
2023/03/22 05:48:35;;;;;;;12.95;7.80;;;9.60;99.90;;;;;;5116896;27;20044;-81
2023/03/22 05:51:02;;;;;;;16.08;8.45;;;9.60;99.90;;;;;;5112534;27;20043;-81
2023/03/22 05:53:28;;;;;;;15.02;8.48;;;9.60;99.90;;;;;;5097370;28;20032;-81
2023/03/22 05:55:56;;;;;;;13.75;7.57;;;9.60;99.90;;;;;;5110367;27;20024;-80
2023/03/22 05:58:23;;;;;;;16.33;8.63;;;9.60;99.90;;;;;;5107041;27;20429;-81
2023/03/22 06:00:50;;;;;;;14.65;7.93;;;9.60;99.90;;;;;;5108029;28;20071;-82
2023/03/22 06:03:17;;;;;;;11.65;7.90;;;9.60;99.90;;;;;;5112318;27;20036;-82
2023/03/22 06:05:42;;;;;;;15.05;8.38;;;9.60;99.90;;;;;;5111951;28;20067;-81
2023/03/22 06:08:08;;;;;;;14.65;8.10;;;9.70;99.90;;;;;;5135999;27;20040;-81
2023/03/22 06:10:33;;;;;;;15.20;8.23;;;9.60;99.90;;;;;;5135373;27;20039;-82
2023/03/22 06:12:59;;;;;;;16.08;8.20;;;9.60;99.90;;;;;;5112587;27;20078;-83
2023/03/22 06:15:25;;;;;;;16.70;8.60;;;9.70;99.90;;;;;;5130579;27;20088;-82
2023/03/22 06:17:50;;;;;;;14.00;8.68;;;9.70;99.90;;;;;;5132435;27;20055;-81
2023/03/22 06:20:16;;;;;;;15.98;9.45;;;9.70;99.90;;;;;;5114763;27;20551;-82
2023/03/22 06:22:41;;;;;;;16.55;8.60;;;9.70;99.90;;;;;;5109967;27;20039;-81
2023/03/22 06:25:08;;;;;;;17.88;8.40;;;9.80;99.90;;;;;;5128046;27;20515;-80
2023/03/22 06:27:34;;;;;;;13.95;8.25;;;9.80;99.90;;;;;;5097234;27;20490;-81
2023/03/22 06:30:00;;;;;;;17.55;9.05;;;9.80;99.90;;;;;;5108279;27;20065;-80
2023/03/22 06:32:25;;;;;;;14.75;8.85;;;9.80;99.90;;;;;;5114384;28;20061;-80
2023/03/22 06:34:52;;;;;;;15.57;8.93;;;9.80;99.90;;;;;;5109009;27;20110;-80
2023/03/22 06:37:18;;;;;;;14.45;8.77;;;9.80;99.90;;;;;;5115801;27;20040;-80
2023/03/22 06:39:44;;;;;;;15.55;8.90;;;9.80;99.90;;;;;;5119963;27;20039;-80
2023/03/22 06:42:09;;;;;;;17.33;8.95;;;9.80;99.90;;;;;;5110921;27;21602;-80
2023/03/22 06:44:35;;;;;;;14.68;8.85;;;9.90;99.90;;;;;;5120524;27;20276;-80
2023/03/22 06:47:01;;;;;;;17.05;9.18;;;9.90;99.90;;;;;;5106705;28;20043;-80
2023/03/22 06:49:27;;;;;;;17.55;8.95;;;9.90;99.90;;;;;;5113459;28;20051;-80
2023/03/22 06:51:53;;;;;;;25.17;9.15;;;9.90;99.90;;;;;;5107580;28;20039;-80
2023/03/22 06:54:19;;;;;;;15.07;9.30;;;9.90;99.90;;;;;;5112811;28;20466;-81
2023/03/22 06:56:44;;;;;;;16.50;8.90;;;10.00;99.90;;;;;;5115361;28;20096;-80
2023/03/22 06:59:10;;;;;;;15.55;8.70;;;10.00;99.90;;;;;;5110011;28;20039;-80
2023/03/22 07:01:35;;;;;;;13.48;8.70;;;10.10;99.90;;;;;;5133801;27;20043;-81
2023/03/22 07:04:01;;;;;;;14.55;8.75;;;10.20;99.90;;;;;;5107856;28;20040;-80
2023/03/22 07:06:27;;;;;;;15.40;8.23;;;10.30;99.90;;;;;;5127544;27;20047;-80
2023/03/22 07:08:53;;;;;;;17.05;8.90;;;10.40;99.90;;;;;;5107412;28;20095;-80
2023/03/22 07:11:19;;;;;;;15.60;8.90;;;10.50;99.90;;;;;;5117390;28;20075;-80
2023/03/22 07:13:44;;;;;;;16.23;8.07;;;10.50;99.90;;;;;;5115444;28;20034;-80
2023/03/22 07:16:10;;;;;;;14.52;8.35;;;10.60;99.90;;;;;;5100020;28;20071;-80
2023/03/22 07:18:36;;;;;;;16.10;9.13;;;10.60;99.90;;;;;;5114561;28;20035;-80
2023/03/22 07:21:02;;;;;;;14.43;8.75;;;10.60;99.90;;;;;;5112564;28;20114;-80
2023/03/22 07:23:28;;;;;;;12.63;7.97;;;10.60;99.90;;;;;;5110272;28;20032;-80
2023/03/22 07:25:54;;;;;;;14.55;7.65;;;10.60;99.90;;;;;;5118929;28;20035;-81
2023/03/22 07:28:21;;;;;;;16.27;8.38;;;10.60;99.90;;;;;;5111053;28;20452;-81
2023/03/22 07:30:47;;;;;;;16.15;7.55;;;10.60;99.90;;;;;;5086377;28;20135;-80
2023/03/22 07:33:12;;;;;;;18.25;8.95;;;10.60;99.90;;;;;;5114110;28;20039;-80
2023/03/22 07:35:38;;;;;;;11.63;7.40;;;10.60;99.90;;;;;;5110879;28;20680;-81
2023/03/22 07:38:05;;;;;;;15.77;8.55;;;10.60;99.90;;;;;;5115094;28;20063;-81
2023/03/22 07:40:31;;;;;;;12.77;7.40;;;10.60;99.90;;;;;;5111765;28;20043;-81
2023/03/22 07:42:57;;;;;;;15.43;7.55;;;10.60;99.90;;;;;;5109879;28;20407;-82
2023/03/22 07:45:23;;;;;;;11.02;7.50;;;10.60;99.90;;;;;;5112800;28;20118;-81
2023/03/22 07:47:49;;;;;;;15.23;8.43;;;10.60;99.90;;;;;;5111702;28;20039;-80
2023/03/22 07:50:16;;;;;;;13.90;7.57;;;10.60;99.90;;;;;;5118852;28;20045;-80
2023/03/22 07:52:43;;;;;;;11.70;7.70;;;10.50;99.90;;;;;;5109797;28;20032;-81
2023/03/22 07:55:10;;;;;;;13.32;7.63;;;10.60;99.90;;;;;;5109760;28;20059;-80
2023/03/22 07:57:36;;;;;;;11.45;7.13;;;10.60;99.90;;;;;;5113765;28;20042;-80
2023/03/22 08:00:05;;;;;;;13.88;6.97;;;10.60;99.90;;;;;;5106028;28;20394;-81
2023/03/22 08:02:30;;;;;;;13.60;6.72;;;10.70;99.90;;;;;;5094533;28;20036;-81
2023/03/22 08:04:56;;;;;;;11.27;7.15;;;10.80;99.90;;;;;;5109396;28;20119;-82
2023/03/22 08:07:24;;;;;;;12.07;6.72;;;11.00;99.90;;;;;;5093631;28;20039;-81
2023/03/22 08:09:50;;;;;;;13.20;6.63;;;11.00;99.90;;;;;;5104939;28;20054;-80
2023/03/22 08:12:15;;;;;;;12.13;7.07;;;11.10;99.90;;;;;;5107915;28;20032;-79
2023/03/22 08:14:41;;;;;;;11.55;6.63;;;11.10;99.90;;;;;;5110115;28;20088;-81
2023/03/22 08:17:06;;;;;;;12.52;6.15;;;11.10;99.90;;;;;;5113939;28;20032;-81
2023/03/22 08:19:33;;;;;;;12.25;5.88;;;11.10;99.90;;;;;;5106381;28;20036;-82
2023/03/22 08:21:59;;;;;;;9.05;5.93;;;11.00;99.90;;;;;;5110656;28;20031;-82
2023/03/22 08:24:25;;;;;;;12.80;6.18;;;11.00;99.90;;;;;;5110618;28;20088;-83
2023/03/22 08:26:51;;;;;;;13.57;5.60;;;11.00;99.90;;;;;;5091055;28;20039;-84
2023/03/22 08:29:17;;;;;;;12.45;6.05;;;11.00;99.90;;;;;;5109009;28;20037;-83
2023/03/22 08:31:43;;;;;;;8.60;5.65;;;11.10;99.90;;;;;;5109612;28;20084;-84
2023/03/22 08:34:09;;;;;;;11.25;5.82;;;11.10;99.90;;;;;;5127951;27;20032;-82
2023/03/22 08:36:36;;;;;;;12.90;5.25;;;11.10;99.90;;;;;;5137497;27;20054;-82
2023/03/22 08:39:03;;;;;;;11.50;5.60;;;11.10;99.90;;;;;;5106453;28;20066;-83
2023/03/22 08:41:28;;;;;;;13.68;5.35;;;11.20;99.90;;;;;;5092443;28;20554;-83
2023/03/22 08:43:54;;;;;;;12.48;5.07;;;11.20;99.90;;;;;;5104070;28;20081;-84
2023/03/22 08:46:19;;;;;;;9.80;5.45;;;11.20;99.90;;;;;;5106939;28;20123;-81
2023/03/22 08:48:49;;;;;;;10.23;5.22;;;11.20;99.90;;;;;;5110638;28;20035;-82
2023/03/22 08:51:20;;;;;;;11.45;5.10;;;11.30;99.90;;;;;;5109349;28;20048;-83
2023/03/22 08:53:46;;;;;;;13.93;5.28;;;11.30;99.90;;;;;;5110989;28;20518;-83
2023/03/22 08:56:13;;;;;;;11.43;4.78;;;11.40;99.90;;;;;;5090935;28;20032;-82
2023/03/22 08:58:41;;;;;;;13.02;5.40;;;11.50;99.90;;;;;;5104339;28;20032;-83
2023/03/22 09:01:10;;;;;;;11.98;4.72;;;11.50;99.90;;;;;;5110064;28;20035;-82
2023/03/22 09:03:35;;;;;;;9.55;4.55;;;11.60;99.90;;;;;;5106431;28;20410;-82
2023/03/22 09:06:01;;;;;;;9.98;4.50;;;11.60;99.90;;;;;;5111353;28;20032;-82
2023/03/22 09:08:27;;;;;;;10.18;4.75;;;11.60;99.90;;;;;;5091230;28;20094;-82
2023/03/22 09:10:53;;;;;;;10.68;4.30;;;11.60;99.90;;;;;;5111230;28;20456;-81
2023/03/22 09:13:19;;;;;;;9.20;3.95;;;11.50;99.90;;;;;;5091912;28;20082;-82
2023/03/22 09:15:44;;;;;;;9.93;4.20;;;11.50;99.90;;;;;;5104249;28;20410;-83
2023/03/22 09:18:10;;;;;;;12.98;5.10;;;11.50;99.90;;;;;;5113973;28;20118;-82
2023/03/22 09:20:36;;;;;;;11.07;4.45;;;11.40;99.90;;;;;;5106463;28;20080;-81
2023/03/22 09:23:03;;;;;;;11.10;4.63;;;11.40;99.90;;;;;;5109822;28;20126;-82
2023/03/22 09:25:29;;;;;;;11.38;4.30;;;11.40;99.90;;;;;;5109799;28;20036;-82
2023/03/22 09:27:55;;;;;;;9.25;4.15;;;11.40;99.90;;;;;;5110844;28;20040;-83
2023/03/22 09:30:20;;;;;;;12.82;4.07;;;11.40;99.90;;;;;;5109377;28;20069;-81
2023/03/22 09:32:46;;;;;;;11.98;4.55;;;11.50;99.90;;;;;;5144467;27;20024;-81
2023/03/22 09:35:11;;;;;;;10.80;4.60;;;11.50;99.90;;;;;;5108303;28;20146;-83
2023/03/22 09:37:37;;;;;;;10.88;4.38;;;11.40;99.90;;;;;;5110954;28;20036;-83
2023/03/22 09:40:05;;;;;;;8.40;3.63;;;11.50;99.90;;;;;;5109684;28;20410;-81
2023/03/22 09:42:41;;;;;;;11.45;4.30;;;11.50;99.90;;;;;;5104231;28;20036;-83
2023/03/22 09:45:13;;;;;;;12.32;4.22;;;11.50;99.90;;;;;;5111818;28;20091;-83
2023/03/22 09:47:43;;;;;;;11.18;4.05;;;11.40;99.90;;;;;;5107258;27;20038;-81
2023/03/22 09:50:21;;;;;;;8.88;4.07;;;11.40;99.90;;;;;;5106666;28;20058;-82
2023/03/22 09:52:48;;;;;;;11.85;4.03;;;11.30;99.90;;;;;;5110096;28;20061;-82
2023/03/22 09:55:21;;;;;;;8.55;3.58;;;11.30;99.90;;;;;;5118847;27;20058;-83
2023/03/22 09:58:04;;;;;;;11.35;4.00;;;11.30;99.90;;;;;;5110194;27;20054;-82
2023/03/22 10:00:38;;;;;;;8.10;4.13;;;11.20;99.90;;;;;;5108677;28;20043;-81
2023/03/22 10:03:15;;;;;;;8.27;4.22;;;11.20;99.90;;;;;;5112661;27;20122;-81
2023/03/22 10:05:44;;;;;;;9.63;3.90;;;11.10;99.90;;;;;;5118066;27;20039;-82
2023/03/22 10:08:43;;;;;;;7.47;3.83;;;11.00;99.90;;;;;;5136361;27;20078;-82
2023/03/22 10:11:37;;;;;;;10.73;4.05;;;10.90;99.90;;;;;;5130044;27;20043;-82
2023/03/22 10:14:29;;;;;;;;;;;10.80;99.90;;;;;;5112533;27;20070;-82
2023/03/22 10:16:57;;;;;;;12.35;4.60;;;10.70;99.90;;;;;;5108893;28;19916;-81
2023/03/22 10:19:28;;;;;;;8.88;4.15;;;10.70;99.90;;;;;;5116169;27;20498;-82
2023/03/22 10:21:55;;;;;;;9.65;4.18;;;10.60;99.90;;;;;;5095727;28;20043;-82
2023/03/22 10:24:31;;;;;;;10.77;4.30;;;10.60;99.90;;;;;;5117510;27;20050;-83
2023/03/22 10:26:57;;;;;;;9.98;4.30;;;10.60;99.90;;;;;;5110534;27;20032;-81
2023/03/22 10:29:29;;;;;;;13.02;3.97;;;10.50;99.90;;;;;;5113872;28;20169;-81
2023/03/22 10:31:58;;;;;;;9.02;4.50;;;10.50;99.90;;;;;;5114437;28;20061;-81
2023/03/22 10:34:29;;;;;;;11.65;4.50;;;10.50;99.90;;;;;;5121095;27;20031;-81
2023/03/22 10:36:59;;;;;;;7.82;4.10;;;10.40;99.90;;;;;;5112048;28;20036;-82
2023/03/22 10:39:48;;;;;;;7.93;4.55;;;10.40;99.90;;;;;;5109688;28;20058;-80
2023/03/22 10:42:22;;;;;;;10.98;4.63;;;10.40;99.90;;;;;;5109616;28;20515;-81
2023/03/22 10:44:59;;;;;;;9.75;4.32;;;10.30;99.90;;;;;;5119138;27;20070;-82
2023/03/22 10:47:42;;;;;;;7.97;4.20;;;10.30;99.90;;;;;;5106349;28;20043;-82
2023/03/22 10:50:18;;;;;;;9.23;4.00;;;10.30;99.90;;;;;;5093341;28;20040;-82
2023/03/22 10:53:08;;;;;;;13.07;4.80;;;10.30;99.90;;;;;;5106431;28;20039;-82
2023/03/22 10:55:42;;;;;;;9.65;4.10;;;10.20;99.90;;;;;;5110471;28;20087;-82
2023/03/22 10:58:15;;;;;;;9.65;4.25;;;10.20;99.90;;;;;;5094584;28;20380;-82
2023/03/22 11:00:43;;;;;;;10.73;5.13;;;10.20;99.90;;;;;;5091610;28;20053;-82
2023/03/22 11:03:28;;;;;;;9.70;4.45;;;10.20;99.90;;;;;;5106332;28;20044;-82
2023/03/22 11:05:59;;;;;;;;;;;10.20;99.90;;;;;;5088533;28;20439;-82
2023/03/22 11:08:25;;;;;;;9.32;4.20;;;10.20;99.90;;;;;;5090643;28;20395;-82
2023/03/22 11:10:57;;;;;;;8.88;5.00;;;10.30;99.90;;;;;;5115119;28;20042;-81
2023/03/22 11:13:24;;;;;;;7.20;4.22;;;10.30;99.90;;;;;;5132302;27;20539;-82
2023/03/22 11:16:00;;;;;;;11.88;4.78;;;10.30;99.90;;;;;;5090875;28;20525;-83
2023/03/22 11:18:30;;;;;;;9.05;4.53;;;10.30;99.90;;;;;;5089088;28;20044;-82
2023/03/22 11:21:06;;;;;;;9.52;4.35;;;10.40;99.90;;;;;;5111082;28;20035;-83
2023/03/22 11:23:33;;;;;;;9.20;4.35;;;10.40;99.90;;;;;;5087356;28;20051;-82
2023/03/22 11:26:09;;;;;;;8.90;4.60;;;10.40;99.90;;;;;;5092667;28;20081;-82
2023/03/22 11:28:36;;;;;;;6.32;4.10;;;10.40;99.90;;;;;;5103087;28;20047;-82
2023/03/22 11:31:14;;;;;;;9.00;4.60;;;10.40;99.90;;;;;;5091667;28;20047;-81
2023/03/22 11:33:57;;;;;;;10.18;4.90;;;10.40;99.90;;;;;;5081201;28;20032;-83
2023/03/22 11:36:24;;;;;;;8.68;4.72;;;10.50;99.90;;;;;;5123960;28;20058;-83
2023/03/22 11:39:06;;;;;;;9.07;4.03;;;10.50;99.90;;;;;;5110971;28;20035;-82
2023/03/22 11:41:37;;;;;;;11.63;4.78;;;10.50;99.90;;;;;;5137367;27;20135;-83
2023/03/22 11:44:14;;;;;;;11.30;4.70;;;10.50;99.90;;;;;;5108192;28;20162;-83
2023/03/22 11:46:56;;;;;;;7.57;4.13;;;10.50;99.90;;;;;;5103467;28;20052;-84
2023/03/22 11:49:25;;;;;;;9.40;4.13;;;10.50;99.90;;;;;;5099330;28;20406;-82
2023/03/22 11:51:53;;;;;;;8.13;3.92;;;10.50;99.90;;;;;;5106449;28;20047;-84
2023/03/22 11:54:34;;;;;;;7.50;3.95;;;10.50;99.90;;;;;;5116108;27;20114;-81
2023/03/22 11:57:04;;;;;;;6.10;3.60;;;10.60;99.90;;;;;;5103953;28;20036;-82
2023/03/22 11:59:38;;;;;;;9.45;4.20;;;10.50;99.90;;;;;;5110543;28;20421;-81
2023/03/22 12:02:26;;;;;;;6.65;3.70;;;10.50;99.90;;;;;;5089667;28;20032;-83
2023/03/22 12:05:22;;;;;;;9.32;3.70;;;10.60;99.90;;;;;;5110029;28;20050;-83
2023/03/22 12:07:53;;;;;;;10.27;3.92;;;10.60;99.90;;;;;;5100137;28;20040;-83
2023/03/22 12:10:44;;;;;;;7.70;3.75;;;10.60;99.90;;;;;;5108356;28;20036;-82
2023/03/22 12:13:19;;;;;;;6.63;3.58;;;10.60;99.90;;;;;;5079570;28;20096;-83
2023/03/22 12:15:51;;;;;;;8.18;3.63;;;10.60;99.90;;;;;;5092878;28;20133;-82
2023/03/22 12:18:28;;;;;;;7.65;4.28;;;10.60;99.90;;;;;;5112986;28;20047;-83
2023/03/22 12:20:56;;;;;;;6.07;3.95;;;10.60;99.90;;;;;;5094253;28;20039;-82
2023/03/22 12:23:27;;;;;;;7.88;3.53;;;10.60;99.90;;;;;;5102817;28;20521;-82
2023/03/22 12:25:59;;;;;;;5.70;3.55;;;10.60;99.90;;;;;;5111088;28;20161;-82
2023/03/22 12:28:39;;;;;;;7.50;3.53;;;10.60;99.90;;;;;;5091361;28;20046;-83
2023/03/22 12:31:09;;;;;;;6.47;3.92;;;10.60;99.90;;;;;;5113776;27;20035;-82
2023/03/22 12:33:43;;;;;;;7.97;3.80;;;10.60;99.90;;;;;;5094230;28;20031;-82
2023/03/22 12:36:16;;;;;;;8.77;3.85;;;10.70;99.90;;;;;;5114403;27;20064;-82
2023/03/22 12:39:00;;;;;;;8.65;3.67;;;10.70;99.90;;;;;;5110019;28;20055;-84
2023/03/22 12:41:36;;;;;;;8.10;3.65;;;10.60;99.90;;;;;;5101683;28;20088;-82
2023/03/22 12:44:03;;;;;;;8.27;4.00;;;10.60;99.90;;;;;;5108261;28;20118;-83
2023/03/22 12:46:34;;;;;;;8.70;4.50;;;10.50;99.90;;;;;;5108581;28;20036;-82
2023/03/22 12:49:22;;;;;;;11.52;4.30;;;10.50;99.90;;;;;;5096913;27;20379;-83
2023/03/22 12:51:49;;;;;;;7.55;4.13;;;10.40;99.90;;;;;;5101317;28;20047;-82
2023/03/22 12:54:18;;;;;;;11.93;5.00;;;10.40;99.90;;;;;;5112965;28;20032;-82
2023/03/22 12:56:45;;;;;;;8.30;4.43;;;10.40;99.90;;;;;;5107630;28;20431;-83
2023/03/22 12:59:20;;;;;;;10.63;4.90;;;10.30;99.90;;;;;;5105112;28;20502;-82
2023/03/22 13:02:17;;;;;;;9.63;4.85;;;10.30;99.90;;;;;;5110088;27;20477;-83